Time;durP1;ratioP1;P1;durP2;ratioP2;P2;SDS_P1;SDS_P2;PMS_P1;PMS_P2;Temp;Humidity;BMP_temperature;BMP_pressure;BME280_temperature;BME280_humidity;BME280_pressure;Samples;Min_cycle;Max_cycle;Signal;HPM_P1;HPM_P2
2022/10/02 00:02:15;;;;;;;4.47;1.65;;;;;;;13.10;nan;100701.47;4940019;28;20487;-67
2022/10/02 00:04:52;;;;;;;4.97;1.75;;;;;;;13.06;nan;100711.59;4931686;28;20050;-67
2022/10/02 00:07:24;;;;;;;6.28;2.10;;;;;;;13.03;nan;100701.28;4943128;28;20497;-68
2022/10/02 00:09:57;;;;;;;4.47;2.13;;;;;;;13.01;nan;100707.75;4939319;28;20039;-68
2022/10/02 00:12:26;;;;;;;7.40;1.83;;;;;;;13.00;nan;100711.41;4937697;28;20053;-68
2022/10/02 00:14:56;;;;;;;8.60;1.92;;;;;;;12.99;nan;100717.69;4938223;29;20414;-68
2022/10/02 00:17:27;;;;;;;;;;;;;;;12.97;nan;100723.19;4942511;28;20214;-67
2022/10/02 00:19:54;;;;;;;6.75;2.33;;;;;;;12.93;nan;100725.31;4925593;28;19919;-68
2022/10/02 00:22:37;;;;;;;5.55;1.70;;;;;;;13.01;nan;100731.66;4939074;28;20771;-67
2022/10/02 00:25:07;;;;;;;;;;;;;;;12.95;nan;100728.66;4915040;29;20040;-68
2022/10/02 00:27:45;;;;;;;7.20;2.47;;;;;;;12.89;nan;100726.63;4938859;28;20012;-68
2022/10/02 00:30:16;;;;;;;8.05;2.55;;;;;;;12.88;nan;100718.84;4915093;28;20050;-68
2022/10/02 00:33:11;;;;;;;4.20;2.35;;;;;;;12.87;nan;100726.00;4939464;28;20566;-68
2022/10/02 00:36:12;;;;;;;6.55;2.35;;;;;;;12.86;nan;100731.44;4911894;29;20513;-68
2022/10/02 00:39:00;;;;;;;5.40;2.10;;;;;;;12.85;nan;100743.06;4932028;28;20031;-68
2022/10/02 00:41:55;;;;;;;7.78;1.73;;;;;;;12.85;nan;100741.25;4935661;28;20650;-68
2022/10/02 00:45:06;;;;;;;6.20;2.10;;;;;;;12.83;nan;100737.91;4940222;28;20047;-68
2022/10/02 00:47:45;;;;;;;6.35;2.08;;;;;;;12.82;nan;100735.41;4912266;29;20039;-68
2022/10/02 00:50:31;;;;;;;4.53;1.67;;;;;;;12.93;nan;100738.59;4936392;28;20395;-68
2022/10/02 00:53:21;;;;;;;4.65;1.42;;;;;;;13.00;nan;100730.81;4929006;28;20408;-68
2022/10/02 00:55:56;;;;;;;4.13;1.42;;;;;;;13.05;nan;100740.94;4914379;29;20643;-67
2022/10/02 00:58:29;;;;;;;;;;;;;;;12.98;nan;100742.59;4930600;28;20042;-67
2022/10/02 01:01:01;;;;;;;;;;;;;;;12.93;nan;100743.91;4928597;28;20357;-68
2022/10/02 01:03:29;;;;;;;;;;;;;;;12.89;nan;100739.91;4911366;29;19926;-67
2022/10/02 01:05:54;;;;;;;;;;;;;;;12.87;nan;100738.41;4923380;28;19926;-67
2022/10/02 01:08:20;;;;;;;;;;;;;;;12.85;nan;100738.59;4913152;28;20328;-67
2022/10/02 01:10:45;;;;;;;;;;;;;;;12.85;nan;100740.41;4933620;28;19929;-67
2022/10/02 01:13:11;;;;;;;;;;;;;;;12.82;nan;100751.31;4921568;29;19988;-67
2022/10/02 01:15:43;;;;;;;5.30;2.05;;;;;;;12.83;nan;100737.91;4932574;28;20443;-68
2022/10/02 01:18:12;;;;;;;6.60;2.00;;;;;;;12.84;nan;100728.13;4947520;28;20049;-68
2022/10/02 01:20:41;;;;;;;5.57;1.80;;;;;;;12.81;nan;100726.63;4933967;29;20047;-68
2022/10/02 01:23:23;;;;;;;;;;;;;;;12.80;nan;100738.25;4947893;28;20595;-68
2022/10/02 01:25:49;;;;;;;;;;;;;;;12.78;nan;100740.22;4942220;28;19918;-68
2022/10/02 01:28:14;;;;;;;4.63;2.00;;;;;;;12.80;nan;100732.06;4941693;28;19961;-68
2022/10/02 01:30:43;;;;;;;7.47;2.10;;;;;;;12.79;nan;100739.22;4936278;28;20035;-68
2022/10/02 01:33:11;;;;;;;8.15;2.15;;;;;;;12.79;nan;100725.94;4940845;28;20621;-68
2022/10/02 01:35:38;;;;;;;6.70;2.00;;;;;;;12.80;nan;100732.94;4933117;28;20539;-68
2022/10/02 01:38:11;;;;;;;6.57;1.80;;;;;;;12.79;nan;100728.59;4911858;28;20123;-68
2022/10/02 01:40:38;;;;;;;7.53;2.67;;;;;;;12.78;nan;100728.78;4925562;28;20044;-67
2022/10/02 01:43:26;;;;;;;5.15;1.98;;;;;;;12.79;nan;100733.91;4936900;28;20159;-68
2022/10/02 01:45:57;;;;;;;7.38;2.15;;;;;;;12.78;nan;100740.22;4937903;28;20036;-68
2022/10/02 01:48:32;;;;;;;;;;;;;;;12.81;nan;100744.38;4940229;28;20397;-68
2022/10/02 01:51:04;;;;;;;5.63;2.03;;;;;;;12.82;nan;100746.03;4921704;29;20403;-68
2022/10/02 01:53:39;;;;;;;;;;;;;;;12.81;nan;100744.38;4921064;28;20531;-68
2022/10/02 01:56:13;;;;;;;4.90;1.73;;;;;;;12.86;nan;100752.69;4924052;28;20444;-68
2022/10/02 01:59:04;;;;;;;5.55;1.80;;;;;;;12.86;nan;100750.84;4919865;28;20040;-68
2022/10/02 02:01:38;;;;;;;3.75;1.65;;;;;;;12.87;nan;100755.19;4920578;29;20040;-68
2022/10/02 02:04:06;;;;;;;7.30;2.10;;;;;;;12.86;nan;100756.16;4937343;28;20035;-68
2022/10/02 02:07:02;;;;;;;4.13;1.50;;;;;;;12.87;nan;100757.84;4927091;28;20353;-68
2022/10/02 02:09:34;;;;;;;4.82;1.80;;;;;;;12.87;nan;100751.66;4927249;28;20039;-68
2022/10/02 02:12:08;;;;;;;4.47;1.63;;;;;;;12.87;nan;100749.03;4918810;28;20044;-68
2022/10/02 02:14:40;;;;;;;3.83;1.50;;;;;;;12.86;nan;100748.19;4925954;28;20039;-68
2022/10/02 02:17:20;;;;;;;9.85;2.28;;;;;;;12.84;nan;100752.00;4934960;28;20040;-67
2022/10/02 02:20:01;;;;;;;5.13;1.67;;;;;;;12.85;nan;100753.69;4931273;29;20277;-67
2022/10/02 02:22:29;;;;;;;4.43;1.50;;;;;;;12.99;nan;100757.50;4927218;29;20501;-68
2022/10/02 02:25:27;;;;;;;4.07;1.90;;;;;;;12.96;nan;100759.50;4928002;29;21422;-68
2022/10/02 02:27:59;;;;;;;6.70;1.77;;;;;;;12.99;nan;100761.03;4918442;29;20048;-67
2022/10/02 02:30:29;;;;;;;4.70;1.65;;;;;;;13.03;nan;100758.84;4932075;28;20031;-68
2022/10/02 02:33:01;;;;;;;3.78;1.55;;;;;;;13.04;nan;100758.72;4938503;28;20039;-68
2022/10/02 02:35:34;;;;;;;5.00;1.80;;;;;;;13.08;nan;100762.69;4934166;29;20362;-68
2022/10/02 02:38:08;;;;;;;4.88;1.70;;;;;;;13.12;nan;100760.53;4946610;28;20039;-68
2022/10/02 02:40:38;;;;;;;4.30;2.00;;;;;;;13.14;nan;100761.22;4945123;28;20041;-68
2022/10/02 02:43:08;;;;;;;4.25;2.20;;;;;;;13.15;nan;100762.88;4929882;28;20123;-68
2022/10/02 02:45:44;;;;;;;7.30;2.83;;;;;;;13.14;nan;100756.72;4920195;29;20096;-68
2022/10/02 02:48:21;;;;;;;6.97;2.35;;;;;;;13.16;nan;100760.06;4922005;28;20040;-68
2022/10/02 02:50:51;;;;;;;5.75;2.60;;;;;;;13.16;nan;100754.75;4921075;29;20048;-68
2022/10/02 02:53:23;;;;;;;9.45;2.40;;;;;;;13.15;nan;100749.59;4935034;28;20490;-68
2022/10/02 02:55:57;;;;;;;5.82;2.72;;;;;;;13.17;nan;100739.63;4924981;29;20047;-68
2022/10/02 02:58:37;;;;;;;6.13;2.50;;;;;;;13.16;nan;100743.31;4939687;28;20420;-68
2022/10/02 03:01:02;;;;;;;6.18;2.45;;;;;;;13.16;nan;100743.31;4918074;29;20048;-68
2022/10/02 03:03:28;;;;;;;5.18;2.22;;;;;;;13.14;nan;100740.81;4930499;28;20040;-68
2022/10/02 03:06:04;;;;;;;8.30;2.63;;;;;;;13.15;nan;100744.28;4933903;28;20079;-67
2022/10/02 03:08:34;;;;;;;6.65;2.67;;;;;;;13.13;nan;100751.56;4914026;28;20048;-68
2022/10/02 03:11:14;;;;;;;8.95;2.50;;;;;;;13.08;nan;100749.41;4925335;28;20039;-67
2022/10/02 03:14:07;;;;;;;7.60;2.53;;;;;;;13.09;nan;100748.44;4919591;29;20032;-68
2022/10/02 03:16:48;;;;;;;7.63;2.72;;;;;;;13.07;nan;100750.41;4919979;29;20150;-68
2022/10/02 03:19:33;;;;;;;6.13;2.50;;;;;;;13.07;nan;100753.06;4925810;28;20035;-68
2022/10/02 03:22:16;;;;;;;8.63;2.85;;;;;;;13.09;nan;100763.53;4919596;28;20171;-67
2022/10/02 03:25:14;;;;;;;7.20;2.70;;;;;;;13.08;nan;100759.19;4926150;28;20497;-68
2022/10/02 03:27:46;;;;;;;7.72;2.72;;;;;;;13.07;nan;100762.88;4901792;28;20044;-68
2022/10/02 03:30:14;;;;;;;6.70;2.70;;;;;;;13.06;nan;100748.75;4935874;28;20036;-68
2022/10/02 03:32:44;;;;;;;7.57;2.55;;;;;;;13.05;nan;100754.22;4933243;28;20115;-68
2022/10/02 03:35:12;;;;;;;5.65;2.70;;;;;;;13.04;nan;100758.72;4915063;29;20067;-68
2022/10/02 03:37:44;;;;;;;7.82;2.50;;;;;;;13.04;nan;100749.88;4926915;28;20123;-67
2022/10/02 03:40:10;;;;;;;7.97;2.40;;;;;;;13.01;nan;100752.88;4913981;29;20032;-68
2022/10/02 03:42:35;;;;;;;7.75;2.88;;;;;;;13.00;nan;100759.19;4920437;28;20039;-67
2022/10/02 03:45:01;;;;;;;8.57;2.60;;;;;;;13.01;nan;100760.84;4917179;29;20048;-68
2022/10/02 03:47:26;;;;;;;9.85;2.53;;;;;;;13.00;nan;100759.19;4932239;29;20036;-67
2022/10/02 03:49:52;;;;;;;8.80;2.70;;;;;;;12.98;nan;100755.88;4917058;28;20043;-68
2022/10/02 03:52:21;;;;;;;9.48;2.80;;;;;;;12.97;nan;100755.03;4924139;28;20284;-68
2022/10/02 03:54:55;;;;;;;8.20;2.80;;;;;;;12.97;nan;100763.00;4921605;28;20045;-68
2022/10/02 03:57:23;;;;;;;6.07;2.45;;;;;;;12.96;nan;100758.66;4921558;29;20062;-67
2022/10/02 03:59:54;;;;;;;6.40;2.50;;;;;;;12.94;nan;100766.81;4929457;28;20040;-68
2022/10/02 04:02:23;;;;;;;8.75;2.40;;;;;;;12.95;nan;100765.81;4927684;28;20043;-68
2022/10/02 04:04:58;;;;;;;5.78;2.63;;;;;;;12.95;nan;100762.34;4930191;29;20494;-67
2022/10/02 04:07:31;;;;;;;8.57;2.55;;;;;;;12.94;nan;100765.97;4929137;29;20043;-67
2022/10/02 04:10:29;;;;;;;8.00;2.92;;;;;;;12.95;nan;100768.47;4926553;28;20044;-68
2022/10/02 04:13:06;;;;;;;9.30;3.00;;;;;;;12.94;nan;100765.97;4875295;28;20463;-67
2022/10/02 04:15:50;;;;;;;9.02;2.40;;;;;;;12.96;nan;100775.41;4923302;29;20042;-68
2022/10/02 04:18:43;;;;;;;6.40;2.45;;;;;;;13.04;nan;100763.16;4925088;28;20428;-68
2022/10/02 04:21:38;;;;;;;7.60;2.40;;;;;;;13.01;nan;100772.28;4939874;28;20497;-67
2022/10/02 04:24:17;;;;;;;4.93;2.42;;;;;;;12.99;nan;100773.44;4930413;28;20496;-68
2022/10/02 04:26:52;;;;;;;6.25;2.60;;;;;;;12.99;nan;100773.44;4936496;29;20416;-68
2022/10/02 04:29:22;;;;;;;;;;;;;;;12.95;nan;100775.59;4936007;28;20398;-68
2022/10/02 04:31:52;;;;;;;9.77;2.65;;;;;;;12.92;nan;100775.94;4943490;28;19926;-67
2022/10/02 04:34:18;;;;;;;7.05;2.70;;;;;;;12.94;nan;100776.56;4920264;29;20453;-68
2022/10/02 04:37:01;;;;;;;6.68;2.40;;;;;;;12.94;nan;100773.91;4939750;28;20143;-68
2022/10/02 04:40:07;;;;;;;11.45;2.80;;;;;;;12.88;nan;100772.75;4921162;29;20040;-68
2022/10/02 04:42:49;;;;;;;8.07;2.42;;;;;;;12.86;nan;100773.91;4872464;29;20040;-68
2022/10/02 04:45:44;;;;;;;8.00;2.80;;;;;;;12.83;nan;100764.44;4912763;29;20040;-68
2022/10/02 04:48:45;;;;;;;5.97;2.65;;;;;;;12.84;nan;100774.06;4920609;28;20036;-68
2022/10/02 04:51:43;;;;;;;8.45;2.45;;;;;;;12.84;nan;100765.28;4919384;28;20595;-68
2022/10/02 04:54:50;;;;;;;7.30;2.58;;;;;;;12.83;nan;100767.09;4926205;28;20036;-68
2022/10/02 04:57:50;;;;;;;5.03;2.22;;;;;;;12.83;nan;100764.44;4930092;28;20078;-68
2022/10/02 05:00:20;;;;;;;8.65;2.60;;;;;;;12.82;nan;100770.72;4924782;29;20412;-68
2022/10/02 05:03:23;;;;;;;8.60;2.78;;;;;;;12.81;nan;100762.94;4925660;28;20054;-67
2022/10/02 05:06:13;;;;;;;9.40;2.67;;;;;;;12.83;nan;100763.63;4923492;29;20046;-68
2022/10/02 05:09:15;;;;;;;7.18;2.60;;;;;;;12.86;nan;100765.94;4933688;28;20031;-68
2022/10/02 05:11:43;;;;;;;10.18;2.50;;;;;;;12.86;nan;100768.59;4918315;29;20038;-68
2022/10/02 05:14:33;;;;;;;7.57;2.83;;;;;;;12.85;nan;100773.09;4929453;28;20036;-68
2022/10/02 05:17:23;;;;;;;7.43;2.80;;;;;;;12.88;nan;100775.41;4923832;29;20035;-68
2022/10/02 05:19:48;;;;;;;;;;;;;;;12.88;nan;100774.59;4929479;28;20883;-67
2022/10/02 05:22:41;;;;;;;6.78;2.40;;;;;;;12.86;nan;100776.56;4919755;28;19940;-68
2022/10/02 05:25:50;;;;;;;8.98;2.88;;;;;;;12.87;nan;100776.41;4925787;28;20582;-68
2022/10/02 05:28:39;;;;;;;;;;;;;;;12.87;nan;100780.88;4923110;28;20071;-68
2022/10/02 05:31:12;;;;;;;9.88;2.50;;;;;;;12.86;nan;100769.44;4922908;28;19919;-68
2022/10/02 05:34:04;;;;;;;8.15;2.65;;;;;;;12.86;nan;100771.25;4917784;28;20068;-67
2022/10/02 05:36:38;;;;;;;7.10;2.95;;;;;;;12.85;nan;100769.59;4919681;28;20483;-68
2022/10/02 05:39:27;;;;;;;5.10;2.28;;;;;;;12.94;nan;100772.13;4929148;28;20568;-68
2022/10/02 05:42:18;;;;;;;8.32;2.85;;;;;;;12.92;nan;100765.31;4924885;28;20036;-67
2022/10/02 05:44:51;;;;;;;4.43;2.10;;;;;;;13.01;nan;100766.97;4919134;29;20427;-68
2022/10/02 05:47:29;;;;;;;7.18;2.78;;;;;;;12.97;nan;100765.66;4929703;28;20036;-67
2022/10/02 05:49:58;;;;;;;8.05;3.08;;;;;;;12.94;nan;100761.50;4927033;28;20040;-67
2022/10/02 05:52:56;;;;;;;6.93;2.38;;;;;;;12.92;nan;100760.84;4921809;28;20043;-67
2022/10/02 05:55:32;;;;;;;7.10;2.50;;;;;;;12.92;nan;100760.84;4905699;29;20040;-68
2022/10/02 05:58:16;;;;;;;7.97;2.13;;;;;;;12.94;nan;100768.63;4923149;28;20406;-67
2022/10/02 06:00:57;;;;;;;9.40;2.30;;;;;;;12.95;nan;100768.47;4925440;28;20453;-67
2022/10/02 06:03:35;;;;;;;7.65;2.67;;;;;;;12.93;nan;100769.63;4933793;28;20036;-67
2022/10/02 06:06:19;;;;;;;8.70;2.40;;;;;;;12.94;nan;100772.13;4924232;28;20485;-67
2022/10/02 06:09:12;;;;;;;8.55;2.83;;;;;;;12.90;nan;100781.41;4934980;28;20168;-67
2022/10/02 06:11:59;;;;;;;6.40;2.10;;;;;;;12.96;nan;100777.25;4937150;28;20039;-67
2022/10/02 06:14:39;;;;;;;6.43;2.90;;;;;;;12.98;nan;100787.72;4927013;28;20045;-68
2022/10/02 06:17:20;;;;;;;8.45;2.40;;;;;;;12.98;nan;100782.41;4926248;28;20047;-67
2022/10/02 06:19:51;;;;;;;9.50;2.47;;;;;;;12.98;nan;100785.06;4934857;28;20031;-67
2022/10/02 06:22:25;;;;;;;9.35;2.78;;;;;;;12.95;nan;100784.38;4945620;28;20621;-67
2022/10/02 06:25:03;;;;;;;8.43;2.65;;;;;;;12.95;nan;100789.69;4933689;28;20111;-67
2022/10/02 06:27:58;;;;;;;10.55;2.67;;;;;;;12.96;nan;100791.34;4930918;28;20043;-67
2022/10/02 06:30:24;;;;;;;8.73;2.60;;;;;;;13.01;nan;100795.34;4940023;28;20122;-68
2022/10/02 06:33:15;;;;;;;9.32;2.40;;;;;;;13.03;nan;100796.84;4949907;28;20123;-67
2022/10/02 06:35:54;;;;;;;;;;;;;;;13.02;nan;100786.41;4923882;29;20496;-67
2022/10/02 06:38:42;;;;;;;7.97;2.47;;;;;;;13.00;nan;100781.25;4930400;28;20485;-67
2022/10/02 06:41:25;;;;;;;7.90;2.70;;;;;;;13.00;nan;100777.78;4936552;29;20521;-67
2022/10/02 06:44:25;;;;;;;6.65;2.60;;;;;;;13.00;nan;100767.16;4911896;29;20067;-67
2022/10/02 06:47:20;;;;;;;6.72;2.53;;;;;;;12.97;nan;100760.34;4936521;28;20046;-67
2022/10/02 06:50:03;;;;;;;5.10;2.47;;;;;;;13.00;nan;100769.81;4927550;28;20066;-67
2022/10/02 06:52:49;;;;;;;7.80;2.72;;;;;;;13.00;nan;100767.97;4920193;28;20059;-67
2022/10/02 06:55:35;;;;;;;8.35;2.55;;;;;;;13.02;nan;100773.13;4913977;29;20441;-67
2022/10/02 06:58:22;;;;;;;10.82;2.80;;;;;;;13.02;nan;100767.84;4928021;28;20054;-67
2022/10/02 07:01:01;;;;;;;8.98;2.40;;;;;;;13.03;nan;100767.66;4933506;29;20043;-67
2022/10/02 07:03:46;;;;;;;7.10;2.42;;;;;;;13.05;nan;100773.63;4930670;28;20305;-67
2022/10/02 07:06:21;;;;;;;9.35;2.70;;;;;;;13.08;nan;100788.41;4924266;28;20469;-68
2022/10/02 07:08:55;;;;;;;8.77;2.40;;;;;;;13.07;nan;100792.06;4937729;28;20185;-67
2022/10/02 07:11:42;;;;;;;3.92;2.17;;;;;;;13.08;nan;100793.72;4932311;28;20103;-67
2022/10/02 07:14:29;;;;;;;2.97;1.73;;;;;;;13.12;nan;100795.06;4923169;28;20059;-68
2022/10/02 07:17:32;;;;;;;6.97;2.08;;;;;;;13.11;nan;100786.28;4916413;29;20036;-67
2022/10/02 07:20:07;;;;;;;4.22;1.75;;;;;;;13.13;nan;100778.13;4932410;28;20041;-67
2022/10/02 07:22:49;;;;;;;3.33;1.65;;;;;;;13.18;nan;100778.50;4917170;29;20051;-67
2022/10/02 07:25:29;;;;;;;5.95;1.95;;;;;;;13.18;nan;100773.19;4926981;29;20079;-67
2022/10/02 07:28:16;;;;;;;4.55;2.17;;;;;;;13.12;nan;100776.47;4914749;29;20118;-67
2022/10/02 07:31:08;;;;;;;5.50;2.08;;;;;;;13.12;nan;100784.44;4935340;28;20110;-67
2022/10/02 07:33:39;;;;;;;5.50;2.00;;;;;;;13.14;nan;100780.63;4941659;28;20556;-67
2022/10/02 07:36:10;;;;;;;;;;;;;;;13.13;nan;100775.47;4928491;28;20040;-67
2022/10/02 07:39:00;;;;;;;4.78;1.80;;;;;;;13.13;nan;100776.31;4924952;28;20067;-67
2022/10/02 07:41:44;;;;;;;3.67;1.63;;;;;;;13.15;nan;100778.81;4933502;28;20539;-67
2022/10/02 07:44:16;;;;;;;5.50;1.98;;;;;;;13.12;nan;100795.88;4917820;28;20051;-68
2022/10/02 07:46:59;;;;;;;3.55;1.75;;;;;;;13.09;nan;100796.22;4930392;28;20094;-67
2022/10/02 07:49:27;;;;;;;3.70;1.75;;;;;;;13.11;nan;100790.75;4920697;28;20047;-67
2022/10/02 07:51:59;;;;;;;4.95;1.80;;;;;;;13.10;nan;100781.94;4916706;28;20538;-65
2022/10/02 07:54:53;;;;;;;4.68;1.55;;;;;;;13.12;nan;100792.41;4924687;28;21537;-67
2022/10/02 07:57:31;;;;;;;5.20;1.88;;;;;;;13.08;nan;100801.69;4923038;28;20120;-67
2022/10/02 08:00:05;;;;;;;4.03;1.40;;;;;;;13.09;nan;100809.50;4933806;28;20040;-67
2022/10/02 08:02:39;;;;;;;4.85;1.40;;;;;;;13.08;nan;100802.50;4925213;29;20062;-67
2022/10/02 08:05:15;;;;;;;2.85;1.60;;;;;;;13.09;nan;100812.16;4926392;28;20743;-66
2022/10/02 08:07:42;;;;;;;3.97;1.70;;;;;;;13.13;nan;100812.63;4933642;28;20122;-67
2022/10/02 08:10:11;;;;;;;3.00;1.58;;;;;;;13.12;nan;100801.19;4934042;28;20036;-67
2022/10/02 08:12:42;;;;;;;2.40;1.35;;;;;;;13.12;nan;100803.03;4932038;28;20086;-67
2022/10/02 08:15:14;;;;;;;;;;;;;;;13.12;nan;100805.69;4936164;28;20031;-67
2022/10/02 08:17:54;;;;;;;3.30;1.60;;;;;;;13.12;nan;100811.00;4921887;29;20439;-66
2022/10/02 08:20:32;;;;;;;3.28;1.50;;;;;;;13.11;nan;100814.66;4941989;28;20039;-67
2022/10/02 08:23:19;;;;;;;3.35;1.40;;;;;;;13.10;nan;100807.66;4944005;28;20040;-67
2022/10/02 08:26:09;;;;;;;2.80;1.50;;;;;;;13.13;nan;100799.38;4937488;28;20366;-67
2022/10/02 08:29:04;;;;;;;3.35;1.33;;;;;;;13.15;nan;100794.72;4922364;29;20040;-67
2022/10/02 08:31:29;;;;;;;2.63;1.40;;;;;;;13.16;nan;100793.75;4933121;28;20059;-67
2022/10/02 08:33:56;;;;;;;3.08;1.63;;;;;;;13.17;nan;100787.44;4921492;28;20401;-67
2022/10/02 08:36:37;;;;;;;3.72;1.50;;;;;;;13.18;nan;100791.78;4940632;28;20058;-67
2022/10/02 08:39:37;;;;;;;4.18;1.70;;;;;;;13.20;nan;100780.97;4932640;28;20042;-66
2022/10/02 08:42:40;;;;;;;1.77;1.10;;;;;;;13.25;nan;100778.66;4933935;28;20071;-67
2022/10/02 08:45:43;;;;;;;2.80;1.30;;;;;;;13.28;nan;100786.34;4929904;29;20044;-67
2022/10/02 08:48:22;;;;;;;2.10;1.23;;;;;;;13.28;nan;100792.47;4940529;28;20138;-68
2022/10/02 08:51:24;;;;;;;2.75;1.13;;;;;;;13.27;nan;100782.84;4931034;28;20040;-67
2022/10/02 08:54:20;;;;;;;1.88;1.13;;;;;;;13.34;nan;100785.69;4926824;29;20028;-66
2022/10/02 08:57:04;;;;;;;1.88;1.10;;;;;;;13.35;nan;100782.88;4920801;28;20309;-67
2022/10/02 08:59:54;;;;;;;1.58;0.93;;;;;;;13.37;nan;100788.84;4928608;28;20119;-66
2022/10/02 09:02:33;;;;;;;2.00;0.82;;;;;;;13.41;nan;100788.50;4923465;28;20165;-67
2022/10/02 09:05:20;;;;;;;1.10;0.80;;;;;;;13.43;nan;100792.66;4937427;28;20556;-67
2022/10/02 09:08:25;;;;;;;1.67;1.00;;;;;;;13.49;nan;100792.03;4925600;29;20051;-67
2022/10/02 09:11:13;;;;;;;1.20;0.80;;;;;;;13.51;nan;100794.50;4940628;29;20060;-67
2022/10/02 09:14:09;;;;;;;1.83;1.08;;;;;;;13.56;nan;100801.00;4941695;28;20039;-67
2022/10/02 09:17:11;;;;;;;1.70;1.00;;;;;;;13.55;nan;100793.19;4912873;28;20369;-67
2022/10/02 09:19:52;;;;;;;2.25;1.10;;;;;;;13.54;nan;100783.56;4932803;28;20289;-67
2022/10/02 09:22:47;;;;;;;1.63;0.90;;;;;;;13.55;nan;100790.53;4931282;28;20108;-67
2022/10/02 09:25:16;;;;;;;3.38;1.08;;;;;;;13.52;nan;100791.69;4936516;28;20055;-67
2022/10/02 09:28:03;;;;;;;2.05;1.00;;;;;;;13.47;nan;100798.50;4924512;28;20123;-67
2022/10/02 09:31:03;;;;;;;1.52;0.90;;;;;;;13.47;nan;100777.25;4917614;29;20031;-67
2022/10/02 09:34:02;;;;;;;1.35;0.98;;;;;;;13.47;nan;100766.63;4916683;29;20027;-67
2022/10/02 09:37:05;;;;;;;1.52;1.00;;;;;;;13.52;nan;100781.06;4926424;28;20464;-67
2022/10/02 09:39:33;;;;;;;2.25;1.20;;;;;;;13.51;nan;100778.56;4929597;29;20046;-67
2022/10/02 09:42:16;;;;;;;1.95;1.33;;;;;;;13.56;nan;100770.91;4931623;28;20039;-67
2022/10/02 09:45:03;;;;;;;1.85;1.10;;;;;;;13.66;nan;100787.56;4929455;28;20035;-67
2022/10/02 09:48:00;;;;;;;1.95;1.08;;;;;;;13.69;nan;100783.72;4929431;28;20394;-67
2022/10/02 09:50:49;;;;;;;2.38;1.00;;;;;;;13.73;nan;100783.22;4925762;28;22811;-67
2022/10/02 09:53:54;;;;;;;2.30;1.00;;;;;;;13.74;nan;100790.19;4929599;29;20099;-67
2022/10/02 09:56:36;;;;;;;2.28;1.40;;;;;;;13.77;nan;100787.19;4921760;29;20194;-67
2022/10/02 09:59:28;;;;;;;2.60;1.20;;;;;;;13.79;nan;100777.22;4922465;29;20039;-67
2022/10/02 10:02:13;;;;;;;3.38;2.03;;;;;;;13.78;nan;100769.44;4918986;28;20044;-67
2022/10/02 10:04:51;;;;;;;3.05;2.00;;;;;;;13.70;nan;100783.53;4926500;28;20055;-67
2022/10/02 10:07:41;;;;;;;3.05;1.48;;;;;;;13.74;nan;100779.56;4921881;29;20123;-67
2022/10/02 10:10:44;;;;;;;2.40;1.52;;;;;;;13.71;nan;100785.22;4931606;28;20036;-68
2022/10/02 10:13:16;;;;;;;2.05;1.58;;;;;;;13.71;nan;100774.59;4927732;28;20564;-67
2022/10/02 10:16:20;;;;;;;2.97;1.63;;;;;;;13.74;nan;100792.84;4933724;28;20028;-66
2022/10/02 10:19:08;;;;;;;2.25;1.50;;;;;;;13.74;nan;100792.84;4923846;28;20052;-66
2022/10/02 10:22:07;;;;;;;2.30;1.33;;;;;;;13.79;nan;100795.84;4921230;28;20052;-67
2022/10/02 10:25:10;;;;;;;2.20;1.30;;;;;;;13.77;nan;100808.47;4918099;29;20142;-67
2022/10/02 10:27:51;;;;;;;1.90;1.10;;;;;;;13.75;nan;100804.31;4923307;29;20091;-66
2022/10/02 10:31:02;;;;;;;2.00;1.20;;;;;;;13.73;nan;100804.50;4914930;28;20052;-67
2022/10/02 10:34:06;;;;;;;2.72;1.20;;;;;;;13.68;nan;100801.50;4916457;28;20040;-66
2022/10/02 10:39:58;;;;;;;2.05;0.98;;;;;;;13.63;nan;100795.00;4922950;28;20316;-66
2022/10/02 10:42:38;;;;;;;1.60;1.07;;;;;;;13.59;nan;100787.38;4932427;28;20527;-67
2022/10/02 10:45:18;;;;;;;1.80;1.33;;;;;;;13.63;nan;100795.00;4926731;28;20044;-67
2022/10/02 10:47:49;;;;;;;;;;;;;;;13.66;nan;100790.22;4922315;29;20035;-67
2022/10/02 10:50:15;;;;;;;;;;;;;;;13.75;nan;100804.31;4926672;28;19975;-67
2022/10/02 10:52:59;;;;;;;2.60;1.37;;;;;;;13.85;nan;100798.81;4922964;28;19923;-67
2022/10/02 10:56:08;;;;;;;2.95;1.75;;;;;;;13.83;nan;100795.53;4934572;28;20587;-66
2022/10/02 10:59:05;;;;;;;2.50;1.65;;;;;;;13.80;nan;100789.53;4927688;28;20123;-66
2022/10/02 11:01:59;;;;;;;3.00;1.63;;;;;;;13.79;nan;100792.38;4925389;28;20584;-66
2022/10/02 11:04:43;;;;;;;4.35;1.70;;;;;;;13.88;nan;100794.03;4926038;28;20048;-67
2022/10/02 11:07:33;;;;;;;2.97;1.80;;;;;;;14.05;nan;100804.66;4928806;28;20378;-67
2022/10/02 11:10:18;;;;;;;3.67;1.95;;;;;;;14.08;nan;100807.78;4916736;29;20046;-66
2022/10/02 11:12:46;;;;;;;4.47;2.35;;;;;;;14.09;nan;100804.16;4923003;28;20135;-67
2022/10/02 11:15:18;;;;;;;3.90;2.40;;;;;;;14.10;nan;100804.97;4930808;28;20155;-67
2022/10/02 11:18:35;;;;;;;4.93;3.03;;;;;;;14.02;nan;100796.00;4922804;29;20031;-67
2022/10/02 11:21:17;;;;;;;4.05;2.35;;;;;;;14.11;nan;100796.84;4909543;28;20035;-67
2022/10/02 11:24:03;;;;;;;4.55;2.28;;;;;;;14.19;nan;100799.47;4928953;28;20032;-67
2022/10/02 11:26:43;;;;;;;3.53;2.00;;;;;;;14.37;nan;100801.09;4920252;29;20201;-67
2022/10/02 11:29:46;;;;;;;2.80;1.80;;;;;;;14.36;nan;100818.91;4930222;28;20070;-67
2022/10/02 11:32:27;;;;;;;2.90;1.77;;;;;;;14.29;nan;100820.56;4923220;28;20047;-67
2022/10/02 11:35:19;;;;;;;3.53;2.00;;;;;;;14.26;nan;100815.59;4931401;29;20078;-67
2022/10/02 11:38:15;;;;;;;5.05;2.60;;;;;;;14.17;nan;100808.63;4918814;29;20187;-67
2022/10/02 11:40:43;;;;;;;3.95;2.33;;;;;;;14.14;nan;100817.78;4932106;28;20039;-67
2022/10/02 11:44:00;;;;;;;3.22;1.92;;;;;;;14.21;nan;100801.97;4926575;28;20036;-67
2022/10/02 11:46:53;;;;;;;3.50;2.03;;;;;;;14.24;nan;100815.75;4936096;28;20050;-67
2022/10/02 11:50:02;;;;;;;3.05;2.03;;;;;;;14.24;nan;100815.75;4919185;28;20040;-67
2022/10/02 11:52:51;;;;;;;3.30;1.90;;;;;;;14.26;nan;100817.44;4922107;28;20044;-67
2022/10/02 11:55:32;;;;;;;3.75;2.20;;;;;;;14.21;nan;100818.75;4918729;28;20091;-67
2022/10/02 11:58:26;;;;;;;3.58;2.20;;;;;;;14.13;nan;100817.94;4930419;28;20036;-66
2022/10/02 12:00:57;;;;;;;3.40;2.17;;;;;;;14.15;nan;100810.63;4929039;28;20389;-67
2022/10/02 12:03:35;;;;;;;3.25;2.17;;;;;;;14.16;nan;100813.13;4930282;28;20465;-66
2022/10/02 12:06:09;;;;;;;;;;;;;;;14.17;nan;100825.41;4926780;28;20048;-66
2022/10/02 12:08:43;;;;;;;;;;;;;;;14.20;nan;100822.41;4923385;28;19923;-66
2022/10/02 12:11:24;;;;;;;;;;;;;;;14.15;nan;100814.09;4922817;28;19923;-66
2022/10/02 12:14:03;;;;;;;;;;;;;;;14.11;nan;100818.13;4917264;28;20268;-66
2022/10/02 12:16:42;;;;;;;;;;;;;;;14.05;nan;100813.47;4922642;29;19922;-66
2022/10/02 12:19:26;;;;;;;;;;;;;;;13.99;nan;100811.44;4937927;29;20017;-66
2022/10/02 12:28:43;;;;;;;3.35;1.58;;;;;;;14.15;nan;100824.75;4923374;28;20050;-67
2022/10/02 12:31:27;;;;;;;2.42;1.50;;;;;;;14.14;nan;100825.75;4921621;28;20047;-67
2022/10/02 12:34:12;;;;;;;3.60;1.50;;;;;;;14.18;nan;100813.78;4914597;28;20040;-67
2022/10/02 12:36:58;;;;;;;2.20;1.50;;;;;;;14.27;nan;100803.94;4935006;28;20039;-67
2022/10/02 12:39:36;;;;;;;2.17;1.40;;;;;;;14.37;nan;100798.44;4920914;28;20437;-67
2022/10/02 12:42:10;;;;;;;3.35;1.98;;;;;;;14.37;nan;100795.78;4916154;28;20518;-67
2022/10/02 12:44:55;;;;;;;2.38;1.50;;;;;;;14.35;nan;100805.75;4918173;29;20056;-67
2022/10/02 12:47:43;;;;;;;1.65;1.15;;;;;;;14.44;nan;100807.41;4919807;29;20047;-67
2022/10/02 12:50:32;;;;;;;2.78;1.55;;;;;;;14.45;nan;100798.44;4923792;28;20131;-67
2022/10/02 12:53:34;;;;;;;4.90;2.20;;;;;;;14.38;nan;100808.09;4923380;28;20040;-67
2022/10/02 12:56:22;;;;;;;2.78;1.85;;;;;;;14.40;nan;100811.41;4923880;28;20379;-67
2022/10/02 12:59:00;;;;;;;2.90;1.85;;;;;;;14.42;nan;100809.44;4933144;29;20540;-67
2022/10/02 13:01:47;;;;;;;2.75;1.90;;;;;;;14.48;nan;100794.59;4921973;29;20300;-67
2022/10/02 13:04:36;;;;;;;2.65;1.80;;;;;;;14.57;nan;100790.94;4930111;28;20440;-67
2022/10/02 13:07:14;;;;;;;2.15;1.50;;;;;;;14.52;nan;100803.91;4925030;29;20075;-67
2022/10/02 13:09:51;;;;;;;2.58;1.50;;;;;;;14.48;nan;100806.06;4918481;28;20044;-67